Time;durP1;ratioP1;P1;durP2;ratioP2;P2;SDS_P1;SDS_P2;PMS_P1;PMS_P2;Temp;Humidity;BMP_temperature;BMP_pressure;BME280_temperature;BME280_humidity;BME280_pressure;Samples;Min_cycle;Max_cycle;Signal;HPM_P1;HPM_P2
2024/01/28 00:02:36;;;;;;;16.87;3.43;;;;;;;5.17;100.00;102501.11;4724295;60;1138736;-81
2024/01/28 00:07:41;;;;;;;16.70;3.73;;;;;;;5.17;100.00;102500.25;4699141;60;1138602;-81
2024/01/28 00:12:47;;;;;;;12.05;3.20;;;;;;;5.17;100.00;102510.29;4689538;60;1138934;-80
2024/01/28 00:17:57;;;;;;;12.80;3.20;;;;;;;5.16;100.00;102508.56;4711707;60;1138579;-80
2024/01/28 00:23:03;;;;;;;24.67;4.03;;;;;;;5.15;100.00;102501.59;4677669;60;1140724;-81
2024/01/28 00:28:09;;;;;;;22.37;3.62;;;;;;;5.14;100.00;102499.86;4680069;59;1141434;-80
2024/01/28 00:33:15;;;;;;;17.02;5.17;;;;;;;5.15;100.00;102508.59;4641174;59;1140983;-80
2024/01/28 00:38:20;;;;;;;13.00;3.60;;;;;;;5.16;100.00;102511.64;4661823;60;1140940;-81
2024/01/28 00:43:26;;;;;;;19.00;3.90;;;;;;;5.14;100.00;102510.80;4704025;59;1140993;-81
2024/01/28 00:48:31;;;;;;;18.17;4.47;;;;;;;5.14;100.00;102517.36;4691571;60;1140739;-81
2024/01/28 00:53:37;;;;;;;17.53;4.33;;;;;;;5.12;100.00;102516.08;4709906;60;1140991;-81
2024/01/28 00:58:44;;;;;;;17.00;5.20;;;;;;;5.12;100.00;102516.08;4700968;60;1141200;-81
2024/01/28 01:03:49;;;;;;;21.97;4.97;;;;;;;5.11;100.00;102513.48;4665378;60;1138874;-80
2024/01/28 01:08:55;;;;;;;20.93;5.13;;;;;;;5.09;100.00;102512.66;4719353;60;1138811;-80
2024/01/28 01:14:01;;;;;;;25.08;5.22;;;;;;;5.05;100.00;102514.93;4695667;60;1138820;-81
2024/01/28 01:19:07;;;;;;;27.42;5.50;;;;;;;4.99;100.00;102524.27;4695919;58;1139223;-81
2024/01/28 01:24:12;;;;;;;20.32;4.47;;;;;;;4.95;100.00;102530.88;4681715;60;1138510;-81
2024/01/28 01:29:18;;;;;;;22.70;4.73;;;;;;;4.91;100.00;102528.35;4709955;58;1138639;-81
2024/01/28 01:34:24;;;;;;;18.03;4.57;;;;;;;4.85;100.00;102541.61;4771512;59;1138532;-80
2024/01/28 01:39:30;;;;;;;19.80;4.92;;;;;;;4.84;100.00;102551.69;4694443;60;1139163;-81
2024/01/28 01:44:36;;;;;;;14.83;4.70;;;;;;;4.83;100.00;102551.27;4695634;61;1139088;-81
2024/01/28 01:49:43;;;;;;;17.70;3.53;;;;;;;4.84;100.00;102554.30;4699968;60;1138563;-81
2024/01/28 01:54:51;;;;;;;19.83;4.43;;;;;;;4.86;100.00;102547.27;4693208;60;1140774;-81
2024/01/28 01:59:57;;;;;;;25.83;4.43;;;;;;;4.86;100.00;102541.59;4714469;60;1138816;-81
2024/01/28 02:05:03;;;;;;;18.43;4.73;;;;;;;4.87;100.00;102539.83;4696865;60;1138791;-81
2024/01/28 02:10:09;;;;;;;23.00;5.27;;;;;;;4.86;100.00;102534.17;4692824;60;1139196;-81
2024/01/28 02:15:15;;;;;;;18.95;4.67;;;;;;;4.85;100.00;102528.51;4628069;60;1138484;-81
2024/01/28 02:20:20;;;;;;;25.83;6.10;;;;;;;4.85;100.00;102537.69;4657208;61;1140684;-81
2024/01/28 02:25:26;;;;;;;24.27;5.03;;;;;;;4.85;100.00;102543.79;4670915;60;1140610;-81
2024/01/28 02:30:33;;;;;;;15.47;5.13;;;;;;;4.84;100.00;102555.17;4734094;59;1140560;-80
2024/01/28 02:35:38;;;;;;;21.23;4.53;;;;;;;4.85;100.00;102542.48;4711292;60;1140690;-80
2024/01/28 02:40:45;;;;;;;20.43;4.27;;;;;;;4.84;100.00;102546.44;4701403;60;1139077;-81
2024/01/28 02:45:50;;;;;;;18.37;4.30;;;;;;;4.82;100.00;102553.47;4696197;60;1140961;-81
2024/01/28 02:50:56;;;;;;;16.03;4.43;;;;;;;4.81;100.00;102553.05;4718021;60;1140567;-81
2024/01/28 02:56:01;;;;;;;23.73;5.80;;;;;;;4.83;100.00;102561.75;4691308;60;1140591;-81
2024/01/28 03:01:07;;;;;;;12.17;3.93;;;;;;;4.82;100.00;102564.82;4697206;60;1138762;-81
2024/01/28 03:06:13;;;;;;;15.37;3.60;;;;;;;4.80;100.00;102564.44;4684889;61;1138965;-80
2024/01/28 03:11:18;;;;;;;15.83;4.00;;;;;;;4.77;100.00;102577.15;4705425;60;1140886;-81
2024/01/28 03:16:24;;;;;;;23.10;4.63;;;;;;;4.75;100.00;102565.83;4693303;59;1140855;-81
2024/01/28 03:21:30;;;;;;;15.10;4.40;;;;;;;4.73;100.00;102567.64;4652065;60;1138506;-81
2024/01/28 03:26:37;;;;;;;14.37;5.00;;;;;;;4.73;100.00;102582.51;4657995;60;1138455;-81
2024/01/28 03:31:42;;;;;;;12.80;3.83;;;;;;;4.74;100.00;102582.89;4621991;60;1138918;-81
2024/01/28 03:36:48;;;;;;;18.20;5.40;;;;;;;4.76;100.00;102586.35;4642811;61;1138823;-80
2024/01/28 03:41:53;;;;;;;15.60;5.73;;;;;;;4.77;100.00;102588.08;4679749;61;1138936;-80
2024/01/28 03:46:59;;;;;;;18.47;5.97;;;;;;;4.75;100.00;102582.87;4655889;61;1138906;-81
2024/01/28 03:52:05;;;;;;;17.23;5.00;;;;;;;4.71;100.00;102588.23;4690032;61;1139281;-80
2024/01/28 03:57:11;;;;;;;24.65;5.67;;;;;;;4.67;100.00;102583.94;4734613;60;1138967;-81
2024/01/28 04:02:17;;;;;;;20.12;7.97;;;;;;;4.62;100.00;102586.63;4671824;60;1138719;-80
2024/01/28 04:07:23;;;;;;;20.72;5.47;;;;;;;4.60;100.00;102596.28;4673578;59;1138938;-81
2024/01/28 04:12:28;;;;;;;32.33;7.20;;;;;;;4.61;100.00;102591.45;4690374;60;1138745;-80
2024/01/28 04:17:34;;;;;;;18.33;6.37;;;;;;;4.58;100.00;102584.99;4695440;60;1139095;-80
2024/01/28 04:22:40;;;;;;;17.00;6.27;;;;;;;4.58;100.00;102595.47;4697372;60;1139100;-80
2024/01/28 04:27:46;;;;;;;22.53;6.30;;;;;;;4.56;100.00;102613.84;4718126;60;1139074;-81
2024/01/28 04:32:51;;;;;;;21.40;6.63;;;;;;;4.56;100.00;102613.84;4642269;61;1138886;-81
2024/01/28 04:37:57;;;;;;;28.23;6.37;;;;;;;4.58;100.00;102601.55;4610894;61;1138422;-80
2024/01/28 04:43:02;;;;;;;20.75;5.87;;;;;;;4.58;100.00;102613.34;4658555;61;1139062;-80
2024/01/28 04:48:08;;;;;;;21.57;5.53;;;;;;;4.58;100.00;102607.27;4704040;60;1139350;-80
2024/01/28 04:53:14;;;;;;;11.20;5.13;;;;;;;4.58;100.00;102612.51;4695138;60;1139076;-81
2024/01/28 04:58:20;;;;;;;14.75;5.60;;;;;;;4.57;100.00;102623.88;4716689;60;1139045;-80
2024/01/28 05:03:25;;;;;;;22.07;4.97;;;;;;;4.54;100.00;102637.90;4712651;60;1138768;-80
2024/01/28 05:08:31;;;;;;;17.63;4.10;;;;;;;4.50;100.00;102636.22;4675758;60;1138726;-80
2024/01/28 05:13:37;;;;;;;13.57;4.27;;;;;;;4.50;100.00;102635.36;4692770;60;1138534;-80
2024/01/28 05:18:43;;;;;;;14.67;4.97;;;;;;;4.48;100.00;102652.41;4706392;60;1138551;-81
2024/01/28 05:23:48;;;;;;;21.57;5.10;;;;;;;4.45;100.00;102637.19;4696781;60;1138538;-81
2024/01/28 05:28:54;;;;;;;24.80;5.87;;;;;;;4.45;100.00;102635.88;4679426;60;1138502;-81
2024/01/28 05:34:01;;;;;;;15.70;2.90;;;;;;;4.47;100.00;102636.72;4624000;61;1140838;-81
2024/01/28 05:39:07;;;;;;;17.63;4.50;;;;;;;4.52;100.00;102642.30;4599167;61;1140785;-81
2024/01/28 05:44:13;;;;;;;16.57;5.33;;;;;;;4.54;100.00;102654.93;4676797;60;1148877;-81
2024/01/28 05:49:18;;;;;;;21.20;6.58;;;;;;;4.55;100.00;102652.73;4691030;60;1138822;-80
2024/01/28 05:54:24;;;;;;;14.75;4.37;;;;;;;4.51;100.00;102658.05;4709585;59;1138734;-81
2024/01/28 05:59:30;;;;;;;17.07;4.30;;;;;;;4.46;100.00;102654.19;4665660;59;1138903;-80
2024/01/28 06:04:35;;;;;;;20.13;4.67;;;;;;;4.46;100.00;102646.77;4684401;59;1140755;-78
2024/01/28 06:09:41;;;;;;;20.90;6.90;;;;;;;4.43;100.00;102650.78;4653688;60;1140916;-79
2024/01/28 06:14:47;;;;;;;21.43;4.63;;;;;;;4.43;100.00;102655.55;4582342;61;1141056;-78
2024/01/28 06:19:52;;;;;;;17.73;3.60;;;;;;;4.41;100.00;102659.98;4700929;60;1138969;-79
2024/01/28 06:24:59;;;;;;;9.30;3.00;;;;;;;4.39;100.00;102672.23;4673848;60;1138632;-82
2024/01/28 06:30:08;;;;;;;15.98;3.90;;;;;;;4.38;100.00;102668.33;4720297;59;1137116;-79
2024/01/28 06:35:14;;;;;;;19.83;4.93;;;;;;;4.38;100.00;102673.57;4708297;59;1141082;-79
2024/01/28 06:40:19;;;;;;;20.47;5.37;;;;;;;4.40;100.00;102680.52;4684023;59;1140863;-82
2024/01/28 06:45:25;;;;;;;22.87;4.50;;;;;;;4.42;100.00;102684.42;4694943;60;1139013;-78
2024/01/28 06:50:31;;;;;;;17.20;3.73;;;;;;;4.38;100.00;102670.95;4691090;59;1138706;-80
2024/01/28 06:55:36;;;;;;;25.67;6.03;;;;;;;4.35;100.00;102681.48;4688394;60;1138687;-79
2024/01/28 07:00:42;;;;;;;21.37;5.23;;;;;;;4.34;100.00;102677.99;4729921;60;1140795;-79
2024/01/28 07:05:48;;;;;;;27.27;9.10;;;;;;;4.38;100.00;102685.36;4579155;61;1140950;-78
2024/01/28 07:10:53;;;;;;;32.90;11.43;;;;;;;4.38;100.00;102694.53;4577551;61;1140832;-75
2024/01/28 07:15:59;;;;;;;25.57;6.70;;;;;;;4.38;100.00;102707.19;4718247;60;1140966;-78
2024/01/28 07:21:05;;;;;;;15.20;4.90;;;;;;;4.37;100.00;102721.17;4699871;60;1138559;-78
2024/01/28 07:26:11;;;;;;;15.90;5.00;;;;;;;4.37;100.00;102718.55;4693750;60;1138605;-77
2024/01/28 07:31:16;;;;;;;23.05;6.70;;;;;;;4.38;100.00;102724.66;4723036;59;1138561;-76
2024/01/28 07:36:22;;;;;;;26.57;6.97;;;;;;;4.42;100.00;102732.89;4675773;61;1138662;-79
2024/01/28 07:41:28;;;;;;;21.37;5.97;;;;;;;4.39;100.00;102729.88;4651063;61;1138543;-78
2024/01/28 07:46:34;;;;;;;15.87;5.17;;;;;;;4.41;100.00;102731.16;4698277;59;1141030;-77
2024/01/28 07:51:39;;;;;;;52.60;18.77;;;;;;;4.39;100.00;102729.01;4707011;60;1138751;-80
2024/01/28 07:56:45;;;;;;;17.15;6.10;;;;;;;4.37;100.00;102736.02;4700895;60;1140983;-79
2024/01/28 08:01:51;;;;;;;22.77;5.97;;;;;;;4.40;100.00;102732.05;4666264;60;1140723;-79
2024/01/28 08:06:56;;;;;;;23.93;5.73;;;;;;;4.38;100.00;102732.08;4637142;61;1139427;-80
2024/01/28 08:12:03;;;;;;;21.33;5.73;;;;;;;4.36;100.00;102735.16;4694330;60;1138527;-79
2024/01/28 08:17:13;;;;;;;15.93;4.47;;;;;;;4.34;100.00;102741.30;4696067;60;1139342;-80
2024/01/28 08:22:17;;;;;;;16.20;4.62;;;;;;;4.31;100.00;102751.38;4655061;60;1139277;-78
2024/01/28 08:27:23;;;;;;;12.90;3.92;;;;;;;4.31;100.00;102740.04;4631925;61;1139021;-78
2024/01/28 08:32:28;;;;;;;22.30;7.90;;;;;;;4.32;100.00;102744.39;4758415;58;1138648;-79
2024/01/28 08:37:34;;;;;;;15.10;5.90;;;;;;;4.36;100.00;102753.50;4781543;58;1138812;-78
2024/01/28 08:42:39;;;;;;;24.47;8.57;;;;;;;4.40;100.00;102742.53;4755463;58;1138746;-77
2024/01/28 08:47:45;;;;;;;20.03;7.57;;;;;;;4.46;100.00;102743.72;4715642;60;1141117;-78
2024/01/28 08:52:53;;;;;;;19.13;7.63;;;;;;;4.47;100.00;102748.94;4688693;60;1138735;-79
2024/01/28 08:57:59;;;;;;;22.37;6.80;;;;;;;4.51;100.00;102754.55;4707819;60;1139101;-80
2024/01/28 09:03:05;;;;;;;13.73;6.80;;;;;;;4.55;100.00;102760.17;4695051;60;1140738;-80
2024/01/28 09:08:11;;;;;;;21.00;7.37;;;;;;;4.60;100.00;102754.83;4642673;61;1141028;-77
2024/01/28 09:13:16;;;;;;;25.37;7.00;;;;;;;4.64;100.00;102756.95;4643622;61;1138968;-79
2024/01/28 09:18:23;;;;;;;15.28;8.43;;;;;;;4.67;100.00;102773.95;4726641;61;1139142;-80
2024/01/28 09:23:28;;;;;;;21.63;8.60;;;;;;;4.69;100.00;102785.28;4642527;59;1138998;-79
2024/01/28 09:28:34;;;;;;;33.40;13.97;;;;;;;4.71;100.00;102786.13;4684889;58;1139402;-79
2024/01/28 09:33:39;;;;;;;16.42;7.45;;;;;;;4.74;100.00;102799.15;4760952;59;1140605;-78
2024/01/28 09:38:45;;;;;;;22.37;7.20;;;;;;;4.73;100.00;102806.18;4693300;60;1138644;-79
2024/01/28 09:43:50;;;;;;;19.93;5.90;;;;;;;4.75;100.00;102807.44;4695928;59;1138479;-79
2024/01/28 09:48:57;;;;;;;14.10;4.70;;;;;;;4.73;100.00;102809.25;4733251;60;1138556;-79
2024/01/28 09:54:02;;;;;;;16.43;4.77;;;;;;;4.72;100.00;102812.75;4697556;60;1138726;-78
2024/01/28 09:59:10;;;;;;;18.60;4.80;;;;;;;4.73;100.00;102817.11;4672067;60;1138521;-77
2024/01/28 10:04:16;;;;;;;14.43;4.57;;;;;;;4.74;100.00;102814.43;4694677;60;1138775;-77
2024/01/28 10:09:21;;;;;;;10.57;6.37;;;;;;;4.75;100.00;102820.55;4713905;60;1138625;-79
2024/01/28 10:14:28;;;;;;;14.45;5.28;;;;;;;4.82;100.00;102822.19;4690989;60;1140519;-81
2024/01/28 10:19:33;;;;;;;25.08;9.73;;;;;;;4.78;100.00;102816.56;4708444;60;1138574;-80
2024/01/28 10:24:41;;;;;;;22.27;7.83;;;;;;;4.71;100.00;102807.95;4708242;60;1138885;-81
2024/01/28 10:29:47;;;;;;;16.43;5.80;;;;;;;4.74;100.00;102806.57;4670923;60;1140910;-78
2024/01/28 10:34:53;;;;;;;10.07;4.43;;;;;;;4.73;100.00;102797.45;4621768;61;1138718;-76
2024/01/28 10:40:03;;;;;;;10.53;4.67;;;;;;;4.69;100.00;102786.14;4742282;60;1138632;-80
2024/01/28 10:45:11;;;;;;;10.37;4.77;;;;;;;4.69;100.00;102793.14;4682296;60;1138657;-79
2024/01/28 10:50:18;;;;;;;20.60;8.93;;;;;;;4.65;100.00;102795.39;4685387;60;1138690;-78
2024/01/28 10:55:24;;;;;;;12.73;6.20;;;;;;;4.70;100.00;102800.12;4614957;61;1138830;-81
2024/01/28 11:00:31;;;;;;;14.67;6.57;;;;;;;4.72;100.00;102804.45;4695560;60;1138587;-81
2024/01/28 11:05:37;;;;;;;10.15;4.80;;;;;;;4.72;100.00;102803.58;4690971;60;1139003;-81
2024/01/28 11:10:43;;;;;;;11.43;3.63;;;;;;;4.74;100.00;102782.11;4694655;59;1138697;-78
2024/01/28 11:15:48;;;;;;;14.47;5.23;;;;;;;4.72;100.00;102790.03;4699688;60;1138907;-79
2024/01/28 11:20:54;;;;;;;17.97;6.03;;;;;;;4.69;100.00;102765.62;4696502;60;1138639;-81
2024/01/28 11:26:01;;;;;;;31.43;10.37;;;;;;;4.68;100.00;102763.89;4703705;60;1138865;-77
2024/01/28 11:31:06;;;;;;;22.13;7.67;;;;;;;4.70;100.00;102770.84;4668284;60;1140580;-80
2024/01/28 11:36:13;;;;;;;50.50;15.27;;;;;;;4.66;100.00;102769.16;4664608;60;1138660;-80
2024/01/28 11:41:21;;;;;;;14.27;4.00;;;;;;;4.68;100.00;102775.68;4698812;60;1140889;-79
2024/01/28 11:46:28;;;;;;;19.02;5.28;;;;;;;4.70;100.00;102790.94;4650960;60;1139247;-79
2024/01/28 11:51:36;;;;;;;15.55;3.85;;;;;;;4.65;100.00;102783.15;4664615;61;1138671;-77
2024/01/28 11:56:41;;;;;;;12.23;5.07;;;;;;;4.65;100.00;102774.42;4680597;60;1138589;-78
2024/01/28 12:01:47;;;;;;;42.83;11.03;;;;;;;4.60;100.00;102761.38;4702071;60;1139009;-82
2024/01/28 12:06:53;;;;;;;41.30;11.13;;;;;;;4.59;100.00;102753.97;4720014;59;1141093;-77
2024/01/28 12:11:59;;;;;;;71.63;21.30;;;;;;;4.59;100.00;102753.09;4681324;59;1141041;-78
2024/01/28 12:17:05;;;;;;;29.33;7.63;;;;;;;4.58;100.00;102743.54;4678726;60;1141150;-79
2024/01/28 12:22:14;;;;;;;27.97;6.93;;;;;;;4.58;100.00;102737.81;4737261;60;1138511;-79
2024/01/28 12:27:20;;;;;;;16.13;5.30;;;;;;;4.65;100.00;102729.41;4669223;60;1138457;-80
2024/01/28 12:32:26;;;;;;;12.40;4.87;;;;;;;4.64;100.00;102718.95;4660398;60;1138682;-81
2024/01/28 12:37:32;;;;;;;11.17;5.33;;;;;;;4.69;100.00;102708.82;4717674;60;1138951;-81
2024/01/28 12:42:41;;;;;;;17.52;8.38;;;;;;;4.71;100.00;102705.73;4687807;60;1139495;-81
2024/01/28 12:47:47;;;;;;;21.87;9.67;;;;;;;4.71;100.00;102708.80;4596570;62;1138807;-80
2024/01/28 12:52:52;;;;;;;24.47;8.67;;;;;;;4.76;100.00;102718.73;4678170;60;1139279;-79
2024/01/28 12:57:58;;;;;;;47.50;14.07;;;;;;;4.76;100.00;102726.59;4697383;60;1138977;-82
2024/01/28 13:03:04;;;;;;;28.47;9.90;;;;;;;4.72;100.00;102749.40;4715540;59;1140667;-79
2024/01/28 13:08:11;;;;;;;19.70;7.13;;;;;;;4.68;100.00;102771.75;4715640;59;1138839;-78
2024/01/28 13:13:19;;;;;;;17.63;7.20;;;;;;;4.59;100.00;102778.86;4699337;59;1138632;-80
2024/01/28 13:18:24;;;;;;;28.95;11.48;;;;;;;4.50;100.00;102776.41;4713010;60;1138698;-78
2024/01/28 13:23:29;;;;;;;24.87;8.88;;;;;;;4.50;100.00;102766.37;4600993;61;1140798;-80
2024/01/28 13:28:35;;;;;;;32.80;10.33;;;;;;;4.53;100.00;102763.27;4554256;62;1139049;-81
2024/01/28 13:33:41;;;;;;;11.97;4.53;;;;;;;4.58;100.00;102768.44;4687001;61;1141007;-81
2024/01/28 13:38:47;;;;;;;21.07;8.23;;;;;;;4.60;100.00;102750.45;4809155;58;1138590;-81
2024/01/28 13:43:52;;;;;;;55.27;11.77;;;;;;;4.64;100.00;102737.30;4693790;60;1138887;-77
2024/01/28 13:48:58;;;;;;;38.90;13.70;;;;;;;4.67;100.00;102738.56;4709825;60;1140909;-80
2024/01/28 13:54:03;;;;;;;16.90;4.97;;;;;;;4.74;100.00;102743.66;4692671;60;1140828;-79
2024/01/28 13:59:09;;;;;;;9.87;3.97;;;;;;;4.73;100.00;102751.13;4733914;60;1138863;-80
2024/01/28 14:04:16;;;;;;;15.03;5.43;;;;;;;4.73;100.00;102767.30;4763429;58;1136490;-80
2024/01/28 14:09:21;;;;;;;17.20;6.50;;;;;;;4.68;100.00;102758.20;4759009;60;1138723;-81
2024/01/28 14:14:27;;;;;;;39.97;10.63;;;;;;;4.73;100.00;102752.45;4800440;60;1139040;-79
2024/01/28 14:19:32;;;;;;;17.55;4.62;;;;;;;4.72;100.00;102736.74;4629284;61;1141072;-80
2024/01/28 14:24:38;;;;;;;17.07;5.97;;;;;;;4.68;100.00;102738.55;4523654;59;1139289;-79
2024/01/28 14:29:44;;;;;;;42.10;22.17;;;;;;;4.68;100.00;102741.61;4753723;60;1138898;-80
2024/01/28 14:34:51;;;;;;;29.50;12.57;;;;;;;4.65;100.00;102737.72;4762048;58;1141309;-79
2024/01/28 14:39:57;;;;;;;48.60;15.77;;;;;;;4.64;100.00;102735.99;4597347;60;1141789;-77
2024/01/28 14:45:04;;;;;;;36.63;17.10;;;;;;;4.65;100.00;102724.17;4706909;59;1141124;-78
2024/01/28 14:50:10;;;;;;;61.48;20.40;;;;;;;4.66;100.00;102721.97;4730707;60;1140930;-78
2024/01/28 14:55:16;;;;;;;79.57;26.10;;;;;;;4.67;100.00;102723.70;4725224;59;1141028;-80
2024/01/28 15:00:22;;;;;;;30.93;9.23;;;;;;;4.69;100.00;102716.69;4690963;60;1141227;-79
2024/01/28 15:05:27;;;;;;;40.93;14.63;;;;;;;4.73;100.00;102715.75;4775949;60;1138965;-79
2024/01/28 15:10:33;;;;;;;19.80;8.43;;;;;;;4.75;100.00;102720.93;4786200;60;1140760;-80
2024/01/28 15:15:39;;;;;;;29.50;11.13;;;;;;;4.72;100.00;102721.02;4707665;59;1138894;-79
2024/01/28 15:20:44;;;;;;;14.20;5.30;;;;;;;4.70;100.00;102722.80;4740264;59;1140861;-79
2024/01/28 15:25:50;;;;;;;31.20;9.57;;;;;;;4.69;100.00;102726.30;4690155;58;1139044;-79
2024/01/28 15:30:55;;;;;;;41.98;17.27;;;;;;;4.74;100.00;102718.75;4705066;58;1141445;-79
2024/01/28 15:36:01;;;;;;;24.92;10.03;;;;;;;4.83;100.00;102713.80;4635775;61;1140967;-79
2024/01/28 15:41:07;;;;;;;16.40;6.58;;;;;;;4.83;100.00;102724.30;4677591;60;1140820;-79
2024/01/28 15:46:13;;;;;;;22.60;10.97;;;;;;;4.82;100.00;102739.60;4693962;60;1138668;-79
2024/01/28 15:51:19;;;;;;;37.53;16.70;;;;;;;4.74;100.00;102731.86;4691241;60;1140972;-79
2024/01/28 15:56:24;;;;;;;36.80;13.73;;;;;;;4.68;100.00;102726.75;4707211;60;1141098;-79
2024/01/28 16:01:30;;;;;;;53.77;23.40;;;;;;;4.60;100.00;102733.42;4693543;60;1141061;-78
2024/01/28 16:06:36;;;;;;;24.73;9.50;;;;;;;4.53;100.00;102734.87;4689754;60;1141032;-79
2024/01/28 16:11:42;;;;;;;20.80;5.87;;;;;;;4.47;100.00;102728.42;4710935;61;1138800;-80
2024/01/28 16:16:47;;;;;;;20.87;8.10;;;;;;;4.41;100.00;102730.72;4696270;59;1138851;-78
2024/01/28 16:21:53;;;;;;;16.03;5.63;;;;;;;4.36;100.00;102717.27;4739466;59;1138693;-78
2024/01/28 16:26:59;;;;;;;21.65;6.40;;;;;;;4.30;100.00;102719.97;4706360;58;1138962;-79
2024/01/28 16:32:04;;;;;;;59.90;25.55;;;;;;;4.24;100.00;102720.52;4615568;61;1138769;-79
2024/01/28 16:37:10;;;;;;;64.57;27.33;;;;;;;4.17;100.00;102718.00;4729143;60;1140884;-79
2024/01/28 16:42:17;;;;;;;42.93;16.73;;;;;;;4.08;100.00;102731.25;4681582;60;1140544;-78
2024/01/28 16:47:23;;;;;;;45.13;16.50;;;;;;;3.96;100.00;102736.67;4645024;61;1141032;-79
2024/01/28 16:52:28;;;;;;;29.67;12.57;;;;;;;3.81;100.00;102743.86;4778080;60;1141072;-80
2024/01/28 16:57:35;;;;;;;50.23;20.10;;;;;;;3.67;100.00;102737.92;4758135;60;1141084;-80
2024/01/28 17:02:41;;;;;;;43.02;19.20;;;;;;;3.58;100.00;102740.68;4706169;60;1141026;-80
2024/01/28 17:07:46;;;;;;;23.20;9.77;;;;;;;3.53;100.00;102736.80;4699748;60;1140917;-80
2024/01/28 17:12:52;;;;;;;26.27;9.73;;;;;;;3.46;100.00;102742.16;4715744;60;1139321;-80
2024/01/28 17:17:58;;;;;;;32.67;12.37;;;;;;;3.38;100.00;102754.44;4737510;61;1138742;-80
2024/01/28 17:23:04;;;;;;;39.57;17.40;;;;;;;3.30;100.00;102751.06;4732085;61;1141201;-78
2024/01/28 17:28:10;;;;;;;35.40;15.57;;;;;;;3.24;100.00;102745.89;4765136;60;1141097;-79
2024/01/28 17:33:16;;;;;;;30.40;12.53;;;;;;;3.13;100.00;102736.88;4724414;59;1141030;-79
2024/01/28 17:38:22;;;;;;;35.73;12.63;;;;;;;3.06;100.00;102729.53;4672170;60;1140702;-78
2024/01/28 17:43:28;;;;;;;34.90;14.10;;;;;;;3.08;100.00;102728.20;4667205;61;1140701;-78
2024/01/28 17:48:39;;;;;;;36.73;15.23;;;;;;;3.10;100.00;102722.08;4784616;60;1140857;-80
2024/01/28 17:53:41;;;;;;;67.90;27.82;;;;;;;3.23;100.00;102717.57;4749665;60;1140797;-80
2024/01/28 17:58:47;;;;;;;332.92;138.70;;;;;;;3.29;100.00;102731.89;4753387;59;1141329;-79
2024/01/28 18:03:52;;;;;;;103.60;46.37;;;;;;;3.28;100.00;102726.68;4708044;59;1145569;-79
2024/01/28 18:08:58;;;;;;;46.80;20.57;;;;;;;3.26;100.00;102725.83;4699332;59;1143178;-78
2024/01/28 18:14:04;;;;;;;56.83;24.98;;;;;;;3.20;100.00;102735.94;4627647;59;1140842;-80
2024/01/28 18:19:10;;;;;;;56.87;24.30;;;;;;;3.04;100.00;102733.94;4702292;60;1140808;-77
2024/01/28 18:24:15;;;;;;;67.35;24.45;;;;;;;2.98;100.00;102737.05;4521744;61;1150457;-79
2024/01/28 18:29:21;;;;;;;80.97;31.97;;;;;;;2.96;100.00;102728.34;4686316;60;1140787;-77
2024/01/28 18:34:26;;;;;;;171.43;53.93;;;;;;;2.96;100.00;102734.44;4677326;60;1140882;-77
2024/01/28 18:39:32;;;;;;;142.77;48.67;;;;;;;2.89;100.00;102732.80;4692435;60;1142839;-77
2024/01/28 18:44:37;;;;;;;78.43;31.53;;;;;;;2.86;100.00;102732.81;4706103;60;1142833;-80
2024/01/28 18:49:44;;;;;;;72.57;27.13;;;;;;;2.61;100.00;102705.19;4693131;60;1141102;-77
2024/01/28 18:54:50;;;;;;;72.57;31.27;;;;;;;2.61;100.00;102705.19;4647147;60;1140881;-80
2024/01/28 18:59:56;;;;;;;74.40;32.77;;;;;;;2.46;100.00;102700.97;4649664;61;1140904;-78
2024/01/28 19:05:02;;;;;;;97.83;33.90;;;;;;;2.35;100.00;102709.34;4670995;60;1140821;-82
2024/01/28 19:10:09;;;;;;;160.70;54.90;;;;;;;2.29;100.00;102698.97;4714704;60;1140696;-78
2024/01/28 19:15:15;;;;;;;139.18;48.60;;;;;;;2.22;100.00;102695.53;4732553;60;1142944;-79
2024/01/28 19:20:22;;;;;;;101.93;38.90;;;;;;;2.15;100.00;102696.89;4563495;62;1142795;-78
2024/01/28 19:25:29;;;;;;;110.33;40.67;;;;;;;2.10;100.00;102700.42;4601704;62;1142901;-74
2024/01/28 19:30:35;;;;;;;93.53;35.93;;;;;;;2.06;100.00;102693.48;4509766;61;1142812;-77
2024/01/28 19:35:44;;;;;;;92.10;35.13;;;;;;;1.98;100.00;102694.00;4645393;61;1140792;-78
2024/01/28 19:40:49;;;;;;;63.07;27.80;;;;;;;1.96;100.00;102689.66;4696081;60;1141032;-78
2024/01/28 19:45:54;;;;;;;85.20;38.00;;;;;;;2.00;100.00;102692.66;4741891;59;1140597;-80
2024/01/28 19:51:00;;;;;;;69.10;28.83;;;;;;;1.97;100.00;102696.17;4776700;60;1141079;-78
2024/01/28 19:56:06;;;;;;;58.53;23.03;;;;;;;1.95;100.00;102690.53;4794806;60;1140362;-79
2024/01/28 20:01:13;;;;;;;67.47;24.80;;;;;;;1.96;100.00;102695.75;4723137;60;1140896;-80
2024/01/28 20:06:19;;;;;;;185.00;65.83;;;;;;;1.99;100.00;102700.05;4658525;60;1140601;-78
2024/01/28 20:11:24;;;;;;;128.17;55.63;;;;;;;1.94;100.00;102706.62;4719984;60;1144055;-78
2024/01/28 20:16:30;;;;;;;80.10;33.60;;;;;;;1.87;100.00;102704.06;4616417;62;1142881;-79
2024/01/28 20:21:36;;;;;;;72.67;27.93;;;;;;;1.76;100.00;102705.00;4732003;61;1140621;-77
2024/01/28 20:26:41;;;;;;;87.50;40.27;;;;;;;1.68;100.00;102705.47;4717867;61;1140790;-80
2024/01/28 20:31:47;;;;;;;101.47;43.40;;;;;;;1.61;100.00;102707.70;4867169;58;1140741;-79
2024/01/28 20:36:53;;;;;;;118.07;43.60;;;;;;;1.58;100.00;102704.23;4821416;57;1142714;-81
2024/01/28 20:41:59;;;;;;;231.37;78.77;;;;;;;1.57;100.00;102698.16;4853751;60;1142982;-81
2024/01/28 20:47:08;;;;;;;289.97;95.47;;;;;;;1.53;100.00;102705.55;4810041;60;1142739;-81
2024/01/28 20:52:12;;;;;;;226.30;83.30;;;;;;;1.46;100.00;102705.61;4800617;59;1142861;-81
2024/01/28 20:57:19;;;;;;;84.87;35.57;;;;;;;1.29;100.00;102693.95;4800761;59;1143088;-80
2024/01/28 21:02:24;;;;;;;60.90;26.47;;;;;;;1.16;100.00;102689.67;4871303;59;1141201;-81
2024/01/28 21:07:30;;;;;;;62.17;24.87;;;;;;;1.16;100.00;102689.67;4716500;59;1141135;-80
2024/01/28 21:12:36;;;;;;;55.83;26.63;;;;;;;1.15;100.00;102688.81;4633314;62;1140579;-81
2024/01/28 21:17:41;;;;;;;56.53;27.63;;;;;;;1.14;100.00;102684.47;4713849;61;1140745;-81
2024/01/28 21:22:47;;;;;;;49.97;20.70;;;;;;;1.14;100.00;102666.66;4801699;59;1140651;-81
2024/01/28 21:27:52;;;;;;;52.43;22.20;;;;;;;1.14;100.00;102657.53;4804037;59;1140775;-81
2024/01/28 21:32:58;;;;;;;51.00;22.60;;;;;;;1.15;100.00;102652.32;4804761;59;1141030;-80
2024/01/28 21:38:04;;;;;;;50.60;21.33;;;;;;;1.20;100.00;102644.48;4688381;61;1141799;-80
2024/01/28 21:43:10;;;;;;;51.47;20.90;;;;;;;1.21;100.00;102637.97;4630640;62;1140704;-81
2024/01/28 21:48:17;;;;;;;49.20;21.10;;;;;;;1.20;100.00;102632.33;4698903;62;1140772;-81
2024/01/28 21:53:23;;;;;;;63.80;24.13;;;;;;;1.24;100.00;102626.63;4750717;60;1140900;-81
2024/01/28 21:58:30;;;;;;;47.17;22.07;;;;;;;1.30;100.00;102619.66;4731096;59;1140933;-80
2024/01/28 22:03:35;;;;;;;49.90;22.98;;;;;;;1.35;100.00;102619.64;4746742;58;1140536;-80
2024/01/28 22:08:41;;;;;;;61.40;24.67;;;;;;;1.37;100.00;102627.89;4774223;61;1140868;-80
2024/01/28 22:13:46;;;;;;;60.57;23.50;;;;;;;1.41;100.00;102625.67;4785405;61;1140710;-80
2024/01/28 22:18:52;;;;;;;65.80;24.47;;;;;;;1.46;100.00;102625.65;4608389;61;1141002;-80
2024/01/28 22:23:57;;;;;;;54.40;22.27;;;;;;;1.50;100.00;102629.11;4715188;60;1140861;-80
2024/01/28 22:29:03;;;;;;;57.30;22.77;;;;;;;1.52;100.00;102628.23;4681092;60;1140781;-79
2024/01/28 22:34:10;;;;;;;46.73;18.97;;;;;;;1.52;100.00;102615.19;4615326;62;1140955;-80
2024/01/28 22:39:16;;;;;;;42.33;19.67;;;;;;;1.50;100.00;102613.47;4596708;62;1140943;-80
2024/01/28 22:44:22;;;;;;;41.73;19.93;;;;;;;1.49;100.00;102602.61;4697322;60;1141310;-80
2024/01/28 22:49:27;;;;;;;41.37;19.40;;;;;;;1.46;100.00;102600.88;4701655;57;1140738;-80